Time;durP1;ratioP1;P1;durP2;ratioP2;P2;SDS_P1;SDS_P2;PMS_P1;PMS_P2;Temp;Humidity;BMP_temperature;BMP_pressure;BME280_temperature;BME280_humidity;BME280_pressure;Samples;Min_cycle;Max_cycle;Signal;HPM_P1;HPM_P2
2022/11/05 00:09:48;;;;;;;8.77;5.43;;;;;;;5.04;100.00;101336.13;1019675;29;20808;-82
2022/11/05 00:10:23;;;;;;;10.45;6.15;;;;;;;5.01;100.00;101336.47;1020388;28;20126;-82
2022/11/05 00:10:54;;;;;;;11.95;6.30;;;;;;;5.02;100.00;101338.13;1022155;29;20649;-82
2022/11/05 00:16:44;;;;;;;8.80;6.60;;;;;;;4.99;100.00;101343.72;1022920;29;20407;-82
2022/11/05 00:17:15;;;;;;;11.00;6.75;;;;;;;4.91;100.00;101341.09;1018209;29;20055;-82
2022/11/05 00:17:47;;;;;;;10.50;7.63;;;;;;;4.94;100.00;101330.22;1019351;29;20388;-82
2022/11/05 00:18:18;;;;;;;7.82;6.53;;;;;;;4.91;100.00;101341.09;1017761;29;20311;-83
2022/11/05 00:19:05;;;;;;;7.65;6.60;;;;;;;4.88;100.00;101342.25;1017834;29;20807;-83
2022/11/05 00:19:37;;;;;;;7.18;6.35;;;;;;;4.89;100.00;101340.44;1021437;29;20329;-82
2022/11/05 00:20:12;;;;;;;11.13;7.15;;;;;;;4.81;100.00;101345.72;1025441;28;20833;-82
2022/11/05 00:20:43;;;;;;;8.57;6.10;;;;;;;4.88;100.00;101341.41;1027176;28;20293;-82
2022/11/05 00:25:33;;;;;;;8.63;6.32;;;;;;;4.83;100.00;101343.75;1022855;29;20729;-82
2022/11/05 00:26:07;;;;;;;9.88;5.57;;;;;;;4.82;100.00;101342.09;1020308;29;20315;-82
2022/11/05 00:26:39;;;;;;;7.25;5.65;;;;;;;4.83;100.00;101338.47;1023329;29;20314;-83
2022/11/05 00:27:11;;;;;;;7.15;5.68;;;;;;;4.79;100.00;101343.25;1022115;29;20309;-83
2022/11/05 00:27:47;;;;;;;6.47;5.68;;;;;;;4.79;100.00;101339.78;1024048;28;20386;-83
2022/11/05 00:28:19;;;;;;;6.35;5.35;;;;;;;4.80;100.00;101342.25;1027140;28;20293;-82
2022/11/05 00:28:50;;;;;;;9.98;5.65;;;;;;;4.80;100.00;101338.78;1025869;28;20797;-82
2022/11/05 00:29:22;;;;;;;7.32;5.57;;;;;;;4.85;100.00;101341.75;1030047;28;20304;-83
2022/11/05 00:29:54;;;;;;;8.20;6.05;;;;;;;4.84;100.00;101340.09;1030697;28;20293;-82
2022/11/05 00:30:27;;;;;;;11.32;6.32;;;;;;;4.79;100.00;101337.97;1024454;28;20674;-83
2022/11/05 00:31:04;;;;;;;9.70;5.57;;;;;;;4.78;100.00;101340.78;1026665;28;20309;-83
2022/11/05 00:31:35;;;;;;;7.45;5.93;;;;;;;4.76;100.00;101342.75;1022967;29;20358;-83
2022/11/05 00:32:07;;;;;;;6.35;5.75;;;;;;;4.76;100.00;101343.59;1023842;28;20307;-83
2022/11/05 00:32:39;;;;;;;8.93;5.05;;;;;;;4.73;100.00;101337.81;1023279;29;20298;-83
2022/11/05 00:33:10;;;;;;;6.93;5.03;;;;;;;4.70;100.00;101348.72;1015778;29;20763;-82
2022/11/05 00:33:43;;;;;;;7.75;5.20;;;;;;;4.65;100.00;101346.53;1014855;29;20390;-83
2022/11/05 00:34:14;;;;;;;13.45;5.13;;;;;;;4.67;100.00;101343.75;1012204;29;20334;-82
2022/11/05 00:34:46;;;;;;;6.80;4.88;;;;;;;4.64;100.00;101344.88;1016188;29;20308;-83
2022/11/05 00:35:19;;;;;;;7.50;5.75;;;;;;;4.67;100.00;101335.84;1023345;28;20307;-82
2022/11/05 00:35:51;;;;;;;11.70;5.43;;;;;;;4.59;100.00;101337.47;1019674;29;20363;-82
2022/11/05 00:36:23;;;;;;;6.03;5.43;;;;;;;4.61;100.00;101340.78;1023486;29;20291;-82
2022/11/05 00:36:55;;;;;;;16.10;5.65;;;;;;;4.61;100.00;101346.03;1022896;29;20349;-83
2022/11/05 00:37:27;;;;;;;10.77;5.70;;;;;;;4.64;100.00;101344.88;1024069;28;20295;-82
2022/11/05 00:37:58;;;;;;;6.05;5.22;;;;;;;4.64;100.00;101335.16;1027095;28;20297;-82
2022/11/05 00:38:30;;;;;;;6.82;5.53;;;;;;;4.62;100.00;101342.41;1027096;28;20305;-83
2022/11/05 00:39:04;;;;;;;9.18;5.85;;;;;;;4.67;100.00;101341.13;1027117;28;20305;-83
2022/11/05 00:39:36;;;;;;;5.68;4.93;;;;;;;4.66;100.00;101342.94;1023721;28;20705;-82
2022/11/05 00:40:09;;;;;;;7.07;5.40;;;;;;;4.62;100.00;101346.88;1027268;28;20350;-83
2022/11/05 00:40:40;;;;;;;6.13;5.13;;;;;;;4.70;100.00;101343.44;1022601;29;20302;-82
2022/11/05 00:41:12;;;;;;;10.73;5.10;;;;;;;4.60;100.00;101344.41;1020726;29;20383;-82
2022/11/05 00:44:58;;;;;;;8.40;4.60;;;;;;;4.55;100.00;101336.16;1021606;29;20300;-82
2022/11/05 00:45:06;;;;;;;8.02;5.10;;;;;;;4.59;100.00;101344.56;1026795;28;20055;-83
2022/11/05 00:45:39;;;;;;;6.18;5.15;;;;;;;4.58;100.00;101335.00;1020508;29;20134;-83
2022/11/05 00:46:11;;;;;;;7.22;5.18;;;;;;;4.60;100.00;101344.41;1022967;29;20302;-83
2022/11/05 00:46:43;;;;;;;8.52;4.85;;;;;;;4.57;100.00;101342.09;1020441;29;20291;-83
2022/11/05 00:49:47;;;;;;;11.18;4.75;;;;;;;4.44;100.00;101349.69;1031071;28;20309;-82
2022/11/05 00:50:21;;;;;;;5.88;5.20;;;;;;;4.60;100.00;101349.69;1022706;29;20381;-82
2022/11/05 00:50:52;;;;;;;14.45;5.40;;;;;;;4.66;100.00;101348.22;1018416;29;20311;-82
2022/11/05 00:51:24;;;;;;;8.75;5.70;;;;;;;4.68;100.00;101351.50;1018934;29;20307;-82
2022/11/05 00:52:56;;;;;;;6.43;5.05;;;;;;;4.65;100.00;101351.81;1030219;28;20309;-83
2022/11/05 00:53:38;;;;;;;8.77;5.18;;;;;;;4.65;100.00;101347.38;1026773;28;20380;-82
2022/11/05 00:54:09;;;;;;;6.28;4.95;;;;;;;4.64;100.00;101351.00;1026985;28;20298;-82
2022/11/05 00:54:41;;;;;;;10.32;5.25;;;;;;;4.62;100.00;101355.59;1026852;28;20298;-83
2022/11/05 00:55:12;;;;;;;6.97;6.13;;;;;;;4.62;100.00;101342.41;1025221;28;20334;-82
2022/11/05 00:55:44;;;;;;;5.15;4.55;;;;;;;4.65;100.00;101350.00;1023171;29;20817;-83
2022/11/05 00:56:16;;;;;;;7.00;5.63;;;;;;;4.63;100.00;101349.34;1018856;29;20446;-82
2022/11/05 00:56:47;;;;;;;9.38;5.25;;;;;;;4.61;100.00;101346.03;1018823;29;20291;-82
2022/11/05 00:57:19;;;;;;;8.85;4.85;;;;;;;4.59;100.00;101348.03;1022927;28;20385;-82
2022/11/05 00:57:51;;;;;;;12.52;6.28;;;;;;;4.55;100.00;101349.34;1027043;28;20384;-82
2022/11/05 00:58:23;;;;;;;6.53;4.75;;;;;;;4.58;100.00;101356.94;1027411;28;20290;-82
2022/11/05 00:58:55;;;;;;;7.70;4.70;;;;;;;4.55;100.00;101351.16;1022637;29;20354;-83
2022/11/05 00:59:26;;;;;;;6.97;5.10;;;;;;;4.54;100.00;101344.25;1022992;29;20306;-82
2022/11/05 00:59:58;;;;;;;12.02;5.55;;;;;;;4.61;100.00;101346.03;1023821;28;20306;-82
2022/11/05 01:00:31;;;;;;;16.33;5.75;;;;;;;4.53;100.00;101346.06;1023155;28;20805;-82
2022/11/05 01:01:03;;;;;;;11.98;5.88;;;;;;;4.54;100.00;101346.88;1027113;28;20309;-82
2022/11/05 01:01:34;;;;;;;12.27;6.10;;;;;;;4.52;100.00;101351.50;1026279;28;20316;-83
2022/11/05 01:02:06;;;;;;;8.52;5.40;;;;;;;4.56;100.00;101347.53;1027808;28;20678;-82
2022/11/05 01:02:38;;;;;;;6.78;5.20;;;;;;;4.56;100.00;101348.34;1030826;28;20831;-83
2022/11/05 01:03:14;;;;;;;6.68;5.35;;;;;;;4.54;100.00;101350.34;1030110;28;20310;-82
2022/11/05 01:03:46;;;;;;;7.95;4.97;;;;;;;4.60;100.00;101351.50;1027291;28;20298;-82
2022/11/05 01:04:22;;;;;;;8.57;5.32;;;;;;;4.56;100.00;101348.34;1022594;29;20314;-82
2022/11/05 01:04:54;;;;;;;11.35;5.15;;;;;;;4.58;100.00;101356.94;1022989;29;20295;-83
2022/11/05 01:05:26;;;;;;;8.40;5.70;;;;;;;4.59;100.00;101363.84;1020135;29;20299;-82
2022/11/05 01:06:09;;;;;;;5.10;4.60;;;;;;;4.49;100.00;101363.19;1019474;28;20367;-82
2022/11/05 01:06:41;;;;;;;6.10;4.80;;;;;;;4.46;100.00;101365.34;1025797;28;20298;-82
2022/11/05 01:07:12;;;;;;;10.18;4.90;;;;;;;4.38;100.00;101360.84;1027018;28;20312;-82
2022/11/05 01:07:44;;;;;;;7.50;5.25;;;;;;;4.38;100.00;101371.41;1026021;28;20359;-82
2022/11/05 01:08:17;;;;;;;7.45;5.63;;;;;;;4.35;100.00;101369.94;1026415;28;20824;-82
2022/11/05 01:08:49;;;;;;;7.00;4.97;;;;;;;4.31;100.00;101363.34;1026794;28;20294;-82
2022/11/05 01:09:20;;;;;;;5.13;4.63;;;;;;;4.25;100.00;101376.34;1022774;29;20298;-82
2022/11/05 01:09:52;;;;;;;6.78;5.15;;;;;;;4.20;100.00;101370.72;1023091;28;20317;-82
2022/11/05 01:10:24;;;;;;;7.57;5.57;;;;;;;4.28;100.00;101370.75;1026456;28;20788;-82
2022/11/05 01:10:57;;;;;;;11.93;5.40;;;;;;;4.28;100.00;101370.75;1026871;28;20294;-82
2022/11/05 01:11:31;;;;;;;7.40;5.95;;;;;;;4.33;100.00;101368.44;1021937;29;20314;-82
2022/11/05 01:12:04;;;;;;;8.38;5.15;;;;;;;4.26;100.00;101376.19;1023246;28;20789;-82
2022/11/05 01:12:35;;;;;;;9.68;5.57;;;;;;;4.24;100.00;101374.69;1026889;28;20374;-82
2022/11/05 01:13:07;;;;;;;7.35;4.95;;;;;;;4.24;100.00;101374.69;1027994;28;20308;-82
2022/11/05 01:13:43;;;;;;;6.93;5.10;;;;;;;4.23;100.00;101375.69;1026756;28;20308;-82
2022/11/05 01:14:15;;;;;;;8.10;4.70;;;;;;;4.26;100.00;101378.00;1030786;28;20329;-82
2022/11/05 01:14:46;;;;;;;7.30;4.90;;;;;;;4.26;100.00;101383.25;1030310;28;20297;-83
2022/11/05 01:15:19;;;;;;;8.15;5.57;;;;;;;4.24;100.00;101379.97;1028694;28;20712;-83
2022/11/05 01:15:50;;;;;;;10.23;5.78;;;;;;;4.17;100.00;101376.34;1027582;28;20316;-83
2022/11/05 01:16:22;;;;;;;6.70;5.32;;;;;;;4.11;100.00;101374.31;1026461;28;20527;-82
2022/11/05 01:16:54;;;;;;;8.25;5.53;;;;;;;4.00;100.00;101372.81;1017237;29;20303;-82
2022/11/05 01:17:25;;;;;;;5.65;4.97;;;;;;;3.95;100.00;101375.94;1018178;29;20790;-82
2022/11/05 01:17:57;;;;;;;9.05;5.13;;;;;;;3.89;100.00;101376.59;1019205;29;20452;-82
2022/11/05 01:18:28;;;;;;;9.73;6.55;;;;;;;3.85;100.00;101375.25;1026554;28;20301;-82
2022/11/05 01:19:01;;;;;;;7.57;5.40;;;;;;;3.89;100.00;101370.47;1026559;28;20301;-82
2022/11/05 01:19:32;;;;;;;9.93;5.55;;;;;;;3.92;100.00;101371.00;1022758;29;20330;-82
2022/11/05 01:20:04;;;;;;;7.90;5.30;;;;;;;3.94;100.00;101369.00;1022885;29;20304;-82
2022/11/05 01:20:36;;;;;;;8.32;5.57;;;;;;;3.95;100.00;101367.19;1023390;28;20346;-82
2022/11/05 01:21:12;;;;;;;10.93;5.63;;;;;;;3.98;100.00;101375.63;1022846;28;20409;-82
2022/11/05 01:21:43;;;;;;;8.38;4.90;;;;;;;4.02;100.00;101376.94;1022750;29;20299;-82
2022/11/05 01:22:15;;;;;;;15.93;5.20;;;;;;;4.07;100.00;101373.00;1022092;29;20295;-82
2022/11/05 01:22:46;;;;;;;6.03;5.43;;;;;;;4.04;100.00;101374.97;1023762;28;20309;-82
2022/11/05 01:23:18;;;;;;;6.30;5.30;;;;;;;4.04;100.00;101372.34;1023293;28;20310;-82
2022/11/05 01:23:50;;;;;;;8.02;5.38;;;;;;;4.07;100.00;101378.25;1022744;29;20306;-82
2022/11/05 01:24:22;;;;;;;6.32;5.50;;;;;;;4.09;100.00;101373.66;1023032;29;20291;-82
2022/11/05 01:24:53;;;;;;;6.35;5.35;;;;;;;4.11;100.00;101374.31;1018768;29;20354;-82
2022/11/05 01:25:25;;;;;;;7.82;5.80;;;;;;;4.14;100.00;101371.38;1023310;28;20860;-82
2022/11/05 01:25:57;;;;;;;7.05;5.38;;;;;;;4.16;100.00;101372.06;1022864;29;20342;-82
2022/11/05 01:26:29;;;;;;;9.10;6.03;;;;;;;4.13;100.00;101369.75;1023199;28;20666;-82
2022/11/05 01:27:00;;;;;;;7.68;5.30;;;;;;;4.10;100.00;101370.03;1022714;29;20299;-82
2022/11/05 01:27:32;;;;;;;6.60;4.80;;;;;;;4.04;100.00;101369.69;1023445;28;20303;-82
2022/11/05 01:28:04;;;;;;;5.75;5.15;;;;;;;4.04;100.00;101379.41;1026512;28;20714;-82
2022/11/05 01:28:35;;;;;;;8.35;5.53;;;;;;;4.07;100.00;101373.81;1023035;28;20541;-83
2022/11/05 01:29:09;;;;;;;6.65;5.13;;;;;;;4.07;100.00;101365.09;1019055;29;20330;-82
2022/11/05 01:29:41;;;;;;;7.22;5.75;;;;;;;4.07;100.00;101362.44;1018229;29;20702;-82
2022/11/05 01:30:13;;;;;;;6.72;4.80;;;;;;;4.05;100.00;101370.53;1019243;29;20331;-82
2022/11/05 01:30:44;;;;;;;52.00;7.68;;;;;;;4.02;100.00;101371.66;1017035;29;20318;-83
2022/11/05 01:31:16;;;;;;;10.48;5.10;;;;;;;3.97;100.00;101368.69;1019665;29;20341;-82
2022/11/05 01:31:47;;;;;;;5.63;5.00;;;;;;;3.94;100.00;101369.00;1022172;29;20345;-83
2022/11/05 01:32:19;;;;;;;9.02;5.30;;;;;;;3.93;100.00;101372.63;1019575;29;20299;-83
2022/11/05 01:32:51;;;;;;;5.05;4.57;;;;;;;3.92;100.00;101373.63;1023069;29;20390;-83
2022/11/05 01:33:23;;;;;;;6.50;4.80;;;;;;;3.93;100.00;101374.44;1023407;28;20661;-82
2022/11/05 01:33:54;;;;;;;7.18;5.65;;;;;;;3.86;100.00;101371.63;1027252;28;20552;-83
2022/11/05 01:34:26;;;;;;;5.60;4.20;;;;;;;3.85;100.00;101375.25;1030440;28;20294;-83
2022/11/05 01:34:57;;;;;;;7.55;5.20;;;;;;;3.86;100.00;101369.00;1026783;28;20306;-82
2022/11/05 01:35:29;;;;;;;5.05;4.55;;;;;;;3.85;100.00;101363.88;1031042;28;20468;-83
2022/11/05 01:36:01;;;;;;;4.53;4.10;;;;;;;3.85;100.00;101369.97;1027974;28;20424;-83
2022/11/05 01:36:32;;;;;;;6.70;4.15;;;;;;;3.79;100.00;101375.88;1023369;29;20306;-82
2022/11/05 01:37:04;;;;;;;4.82;4.13;;;;;;;3.79;100.00;101370.59;1023700;29;20638;-82
2022/11/05 01:37:35;;;;;;;5.80;4.15;;;;;;;3.76;100.00;101376.19;1024058;28;20295;-83
2022/11/05 01:38:07;;;;;;;9.13;4.60;;;;;;;3.70;100.00;101366.28;1027948;28;20328;-82
2022/11/05 01:38:39;;;;;;;8.82;3.50;;;;;;;3.67;100.00;101366.59;1031650;28;20676;-82
2022/11/05 01:39:10;;;;;;;5.75;4.78;;;;;;;3.64;100.00;101370.38;1027765;28;20306;-83
2022/11/05 01:39:42;;;;;;;6.28;5.07;;;;;;;3.61;100.00;101370.69;1027472;28;20317;-82
2022/11/05 01:40:19;;;;;;;7.28;4.40;;;;;;;3.60;100.00;101365.59;1023539;29;20679;-83
2022/11/05 01:40:52;;;;;;;67.18;6.22;;;;;;;3.59;100.00;101369.22;1020514;29;20860;-82
2022/11/05 01:41:23;;;;;;;32.25;4.50;;;;;;;3.56;100.00;101369.50;1023610;29;20322;-82
2022/11/05 01:41:55;;;;;;;40.45;5.00;;;;;;;3.52;100.00;101369.00;1025103;28;20298;-82
2022/11/05 01:42:27;;;;;;;58.15;6.95;;;;;;;3.52;100.00;101369.00;1024017;28;20662;-83
2022/11/05 01:42:59;;;;;;;77.85;6.10;;;;;;;3.53;100.00;101369.81;1027741;28;20768;-82
2022/11/05 01:43:53;;;;;;;69.43;6.32;;;;;;;3.49;100.00;101371.94;1023463;28;20305;-82
2022/11/05 01:44:49;;;;;;;8.32;3.22;;;;;;;3.45;100.00;101378.50;1027413;28;20709;-82
2022/11/05 01:45:25;;;;;;;19.45;5.05;;;;;;;3.44;100.00;101370.78;1030324;28;20309;-82
2022/11/05 01:45:57;;;;;;;5.53;4.57;;;;;;;3.42;100.00;101370.94;1023578;29;20311;-82
2022/11/05 01:46:36;;;;;;;5.25;4.75;;;;;;;3.45;100.00;101373.25;1023509;29;20789;-82
2022/11/05 01:47:20;;;;;;;7.75;4.07;;;;;;;3.37;100.00;101376.66;1023623;29;20662;-82
2022/11/05 01:48:02;;;;;;;7.70;3.50;;;;;;;3.38;100.00;101378.31;1029818;28;20304;-83
2022/11/05 01:48:34;;;;;;;9.75;4.07;;;;;;;3.39;100.00;101385.22;1026406;28;20299;-82
2022/11/05 01:49:26;;;;;;;16.90;4.93;;;;;;;3.39;100.00;101379.97;1027670;28;20305;-82
2022/11/05 01:50:00;;;;;;;20.40;3.70;;;;;;;3.39;100.00;101382.59;1023695;29;20350;-82
2022/11/05 01:50:52;;;;;;;13.05;4.18;;;;;;;3.37;100.00;101376.66;1022835;29;20298;-83
2022/11/05 01:51:26;;;;;;;4.70;4.05;;;;;;;3.34;100.00;101376.97;1023598;29;20346;-82
2022/11/05 01:51:58;;;;;;;4.68;3.17;;;;;;;3.36;100.00;101377.66;1026973;28;20305;-82
2022/11/05 01:52:32;;;;;;;12.13;3.55;;;;;;;3.35;100.00;101378.63;1026881;28;20730;-83
2022/11/05 01:53:26;;;;;;;6.07;3.90;;;;;;;3.31;100.00;101382.56;1023404;29;20401;-83
2022/11/05 01:54:05;;;;;;;3.47;3.10;;;;;;;3.26;100.00;101376.91;1022242;29;20310;-82
2022/11/05 01:54:36;;;;;;;4.55;3.70;;;;;;;3.24;100.00;101380.69;1027216;28;20302;-82
2022/11/05 01:55:09;;;;;;;7.80;4.15;;;;;;;3.21;100.00;101381.81;1029970;28;20362;-83
2022/11/05 01:55:44;;;;;;;5.55;3.92;;;;;;;3.19;100.00;101388.22;1026368;28;20349;-82
2022/11/05 01:56:29;;;;;;;3.95;3.55;;;;;;;3.21;100.00;101389.72;1024684;28;20308;-82
2022/11/05 01:57:03;;;;;;;4.65;3.83;;;;;;;3.23;100.00;101390.38;1023778;29;20302;-82
2022/11/05 01:57:35;;;;;;;6.47;3.72;;;;;;;3.17;100.00;101385.75;1020785;28;20816;-82
2022/11/05 01:58:08;;;;;;;6.55;4.35;;;;;;;3.11;100.00;101386.38;1024582;28;20373;-82
2022/11/05 01:58:47;;;;;;;3.47;3.17;;;;;;;3.12;100.00;101388.03;1022973;29;20681;-82
2022/11/05 01:59:37;;;;;;;8.70;3.53;;;;;;;3.11;100.00;101391.63;1021993;28;20295;-83
2022/11/05 02:00:10;;;;;;;4.60;3.22;;;;;;;3.16;100.00;101389.38;1023771;29;20299;-83
2022/11/05 02:00:45;;;;;;;4.32;3.92;;;;;;;3.22;100.00;101391.38;1022246;29;20110;-82
2022/11/05 02:01:17;;;;;;;6.95;4.53;;;;;;;3.21;100.00;101394.97;1026371;28;20693;-83
2022/11/05 02:01:49;;;;;;;5.90;3.75;;;;;;;3.24;100.00;101391.22;1027142;28;20302;-82
2022/11/05 02:02:23;;;;;;;5.95;3.42;;;;;;;3.22;100.00;101388.75;1027472;28;20298;-82
2022/11/05 02:02:56;;;;;;;5.80;2.70;;;;;;;3.22;100.00;101388.75;1027662;28;20294;-82
2022/11/05 02:03:28;;;;;;;7.80;2.45;;;;;;;3.15;100.00;101387.72;1027706;28;20294;-82
2022/11/05 02:04:06;;;;;;;5.32;2.78;;;;;;;3.17;100.00;101391.00;1028258;28;20302;-82
2022/11/05 02:04:40;;;;;;;5.88;2.42;;;;;;;3.20;100.00;101385.44;1026448;28;20294;-82
2022/11/05 02:05:13;;;;;;;4.65;2.78;;;;;;;3.22;100.00;101390.53;1023502;29;20674;-82
2022/11/05 02:05:45;;;;;;;5.85;3.20;;;;;;;3.28;100.00;101385.47;1023914;29;20311;-83
2022/11/05 02:06:16;;;;;;;11.07;3.28;;;;;;;3.29;100.00;101395.06;1024589;28;20294;-83
2022/11/05 02:06:48;;;;;;;8.90;2.83;;;;;;;3.21;100.00;101387.09;1023846;28;20389;-82
2022/11/05 02:07:20;;;;;;;12.77;3.40;;;;;;;3.27;100.00;101397.00;1027364;28;20298;-82
2022/11/05 02:07:52;;;;;;;26.75;4.13;;;;;;;3.26;100.00;101379.53;1023275;29;20326;-82
2022/11/05 02:08:35;;;;;;;11.98;3.67;;;;;;;3.28;100.00;101382.03;1020041;29;20307;-82
2022/11/05 02:09:10;;;;;;;4.38;3.45;;;;;;;3.17;100.00;101383.13;1021406;29;20303;-82
2022/11/05 02:09:53;;;;;;;4.68;3.97;;;;;;;3.16;100.00;101380.63;1021857;29;20307;-82
2022/11/05 02:10:25;;;;;;;20.75;3.85;;;;;;;3.16;100.00;101378.84;1027765;28;20302;-83
2022/11/05 02:10:57;;;;;;;19.15;3.72;;;;;;;3.08;100.00;101376.97;1026149;28;20333;-82
2022/11/05 02:11:28;;;;;;;57.80;4.57;;;;;;;3.14;100.00;101383.44;1031299;28;20308;-82
2022/11/05 02:12:00;;;;;;;51.30;4.25;;;;;;;3.05;100.00;101374.66;1031658;28;20298;-82
2022/11/05 02:12:33;;;;;;;84.25;5.90;;;;;;;3.06;100.00;101375.47;1027112;28;20310;-82
2022/11/05 02:13:05;;;;;;;51.75;3.75;;;;;;;2.98;100.00;101381.50;1027499;28;20297;-82
2022/11/05 02:13:37;;;;;;;33.42;3.55;;;;;;;3.05;100.00;101381.72;1024617;28;20306;-82
2022/11/05 02:14:08;;;;;;;25.83;2.95;;;;;;;3.00;100.00;101383.97;1021376;29;20299;-82
2022/11/05 02:14:40;;;;;;;32.05;4.50;;;;;;;2.86;100.00;101389.78;1019681;29;20307;-82
2022/11/05 02:15:14;;;;;;;5.35;2.65;;;;;;;2.82;100.00;101384.00;1019873;29;21409;-82
2022/11/05 02:16:27;;;;;;;2.55;2.25;;;;;;;2.91;100.00;101390.16;1024720;28;20322;-82
2022/11/05 02:17:05;;;;;;;8.45;2.47;;;;;;;2.86;100.00;101384.53;1027319;28;20305;-82
2022/11/05 02:18:12;;;;;;;14.50;2.45;;;;;;;2.92;100.00;101381.28;1027868;28;20398;-82
2022/11/05 02:19:02;;;;;;;21.33;3.22;;;;;;;2.78;100.00;101387.94;1029278;28;20298;-82
2022/11/05 02:20:00;;;;;;;13.57;3.00;;;;;;;2.73;100.00;101387.53;1027598;28;20294;-82
2022/11/05 02:20:43;;;;;;;18.13;2.47;;;;;;;2.64;100.00;101381.38;1019244;29;20316;-82
2022/11/05 02:21:37;;;;;;;2.90;2.60;;;;;;;2.69;100.00;101392.28;1022099;29;20295;-82
2022/11/05 02:22:51;;;;;;;15.30;3.13;;;;;;;2.70;100.00;101393.94;1023780;28;20051;-82
2022/11/05 02:24:16;;;;;;;9.43;3.10;;;;;;;2.74;100.00;101384.78;1019230;29;20295;-82
2022/11/05 02:24:53;;;;;;;2.50;2.30;;;;;;;2.68;100.00;101390.63;1019258;29;20872;-82
2022/11/05 02:25:45;;;;;;;8.73;2.85;;;;;;;2.70;100.00;101393.94;1019762;29;20470;-83
2022/11/05 02:26:36;;;;;;;1.98;1.88;;;;;;;2.68;100.00;101389.81;1015503;29;20720;-82
2022/11/05 02:27:17;;;;;;;3.53;2.38;;;;;;;2.65;100.00;101400.63;1014990;29;20343;-82
2022/11/05 02:28:27;;;;;;;3.35;2.95;;;;;;;2.63;100.00;101400.78;1023649;28;20638;-82
2022/11/05 02:29:22;;;;;;;4.03;2.22;;;;;;;2.65;100.00;101396.19;1027568;28;20298;-82
2022/11/05 02:30:05;;;;;;;4.97;2.47;;;;;;;2.56;100.00;101396.28;1027263;28;20318;-83
2022/11/05 02:30:42;;;;;;;4.30;2.75;;;;;;;2.61;100.00;101400.09;1031616;28;20783;-82
2022/11/05 02:31:27;;;;;;;9.90;3.03;;;;;;;2.59;100.00;101395.97;1030600;28;20316;-83
2022/11/05 02:32:10;;;;;;;3.45;2.97;;;;;;;2.57;100.00;101396.13;1027817;28;20306;-82
2022/11/05 02:33:02;;;;;;;2.72;2.53;;;;;;;2.62;100.00;101393.88;1027175;28;20294;-82
2022/11/05 02:34:11;;;;;;;3.88;3.15;;;;;;;2.63;100.00;101399.94;1027529;28;20412;-82
2022/11/05 02:34:49;;;;;;;8.82;3.00;;;;;;;2.64;100.00;101391.91;1027299;28;20305;-82
2022/11/05 02:35:35;;;;;;;10.60;2.60;;;;;;;2.61;100.00;101394.84;1027265;28;20320;-82
2022/11/05 02:36:25;;;;;;;29.55;3.92;;;;;;;2.59;100.00;101391.53;1027913;28;20697;-82
2022/11/05 02:37:15;;;;;;;25.67;3.72;;;;;;;2.68;100.00;101389.81;1031340;28;20329;-82
2022/11/05 02:38:00;;;;;;;9.55;2.83;;;;;;;2.58;100.00;101389.06;1026146;28;20306;-82
2022/11/05 02:38:44;;;;;;;17.80;3.35;;;;;;;2.59;100.00;101388.91;1023478;29;20342;-82
2022/11/05 02:39:35;;;;;;;10.52;3.17;;;;;;;2.57;100.00;101397.94;1015632;29;20403;-82
2022/11/05 02:40:10;;;;;;;;;;;;;;;2.54;100.00;101396.44;1012546;29;20305;-82
2022/11/05 02:41:12;;;;;;;12.48;4.65;;;;;;;2.51;100.00;101394.09;1019382;29;19923;-82
2022/11/05 02:42:07;;;;;;;17.70;2.25;;;;;;;2.53;100.00;101386.88;1025395;28;20352;-82
2022/11/05 02:42:47;;;;;;;17.00;2.72;;;;;;;2.50;100.00;101389.81;1027458;28;20113;-83
2022/11/05 02:43:24;;;;;;;4.45;2.35;;;;;;;2.57;100.00;101385.59;1023377;28;20823;-82
2022/11/05 02:44:11;;;;;;;5.80;2.28;;;;;;;2.61;100.00;101383.50;1023824;29;20070;-82
2022/11/05 02:45:25;;;;;;;10.13;2.95;;;;;;;2.57;100.00;101382.16;1027059;28;20321;-82
2022/11/05 02:46:34;;;;;;;4.00;1.83;;;;;;;2.58;100.00;101387.25;1026928;28;20309;-82
2022/11/05 02:47:14;;;;;;;9.35;2.22;;;;;;;2.55;100.00;101384.94;1027034;28;20744;-82
2022/11/05 02:48:14;;;;;;;6.03;1.98;;;;;;;2.63;100.00;101381.53;1029917;28;20312;-82
2022/11/05 02:48:57;;;;;;;3.13;2.00;;;;;;;2.61;100.00;101378.25;1027082;28;20887;-82
2022/11/05 02:49:41;;;;;;;2.53;1.70;;;;;;;2.61;100.00;101383.50;1019560;29;20314;-82
2022/11/05 02:50:23;;;;;;;3.08;2.00;;;;;;;2.57;100.00;101377.72;1019500;29;20300;-82
2022/11/05 02:51:03;;;;;;;3.40;2.15;;;;;;;2.63;100.00;101381.53;1023830;29;20290;-82
2022/11/05 02:51:38;;;;;;;3.65;2.13;;;;;;;2.62;100.00;101379.88;1027335;28;20306;-82
2022/11/05 02:52:24;;;;;;;3.42;3.13;;;;;;;2.67;100.00;101375.81;1027833;28;20301;-82
2022/11/05 02:53:21;;;;;;;5.05;2.72;;;;;;;2.67;100.00;101375.81;1027174;28;20306;-82
2022/11/05 02:53:55;;;;;;;3.85;3.15;;;;;;;2.67;100.00;101370.56;1024788;28;20338;-82
2022/11/05 02:54:36;;;;;;;3.63;3.33;;;;;;;2.67;100.00;101367.09;1023198;28;20317;-82
2022/11/05 02:55:22;;;;;;;5.95;2.60;;;;;;;2.66;100.00;101371.53;1019319;29;20413;-82
2022/11/05 02:56:01;;;;;;;4.82;3.13;;;;;;;2.59;100.00;101372.31;1027588;28;20799;-82
2022/11/05 02:56:35;;;;;;;4.50;2.78;;;;;;;2.61;100.00;101363.28;1025635;28;20794;-82
2022/11/05 02:57:07;;;;;;;5.90;3.30;;;;;;;2.63;100.00;101368.41;1023466;29;20403;-82
2022/11/05 02:57:43;;;;;;;19.67;3.63;;;;;;;2.58;100.00;101368.84;1017717;29;20296;-82
2022/11/05 02:58:14;;;;;;;9.35;2.90;;;;;;;2.59;100.00;101370.50;1017900;29;20674;-82
2022/11/05 02:58:46;;;;;;;4.93;2.60;;;;;;;2.57;100.00;101367.19;1023695;29;20291;-82
2022/11/05 02:59:17;;;;;;;3.83;3.53;;;;;;;2.60;100.00;101361.63;1016198;29;20308;-82
2022/11/05 03:00:19;;;;;;;3.83;2.95;;;;;;;2.59;100.00;101365.25;1015783;29;20310;-82
2022/11/05 03:00:52;;;;;;;3.97;2.63;;;;;;;2.68;100.00;101364.31;1019153;28;20307;-82
2022/11/05 03:01:24;;;;;;;3.28;2.97;;;;;;;2.66;100.00;101361.03;1023596;28;20040;-82
2022/11/05 03:01:57;;;;;;;3.75;3.30;;;;;;;2.65;100.00;101358.53;1027498;28;20330;-82
2022/11/05 03:02:28;;;;;;;4.35;2.92;;;;;;;2.61;100.00;101362.47;1027352;28;20306;-82
2022/11/05 03:03:01;;;;;;;5.65;2.67;;;;;;;2.62;100.00;101370.19;1028083;28;20804;-82
2022/11/05 03:03:44;;;;;;;4.45;3.05;;;;;;;2.63;100.00;101366.59;1031001;28;20312;-82
2022/11/05 03:04:18;;;;;;;4.93;3.08;;;;;;;2.66;100.00;101373.34;1026288;28;20306;-82
2022/11/05 03:04:50;;;;;;;10.73;3.00;;;;;;;2.63;100.00;101363.13;1021535;29;20789;-83
2022/11/05 03:05:23;;;;;;;3.55;3.13;;;;;;;2.63;100.00;101360.50;1023457;29;20310;-82
2022/11/05 03:06:13;;;;;;;3.33;3.03;;;;;;;2.54;100.00;101359.63;1020874;29;20343;-82
2022/11/05 03:07:03;;;;;;;3.85;3.55;;;;;;;2.56;100.00;101362.91;1026465;28;20301;-82
2022/11/05 03:07:42;;;;;;;2.88;2.63;;;;;;;2.56;100.00;101360.28;1024125;28;20662;-82
2022/11/05 03:08:27;;;;;;;11.90;4.25;;;;;;;2.56;100.00;101370.81;1027402;28;20298;-82
2022/11/05 03:09:35;;;;;;;4.15;3.35;;;;;;;2.53;100.00;101365.84;1027319;28;20298;-82
2022/11/05 03:10:19;;;;;;;5.80;2.97;;;;;;;2.53;100.00;101355.34;1031268;28;20301;-82
2022/11/05 03:10:57;;;;;;;3.38;3.10;;;;;;;2.51;100.00;101361.72;1027161;28;20660;-82
2022/11/05 03:11:31;;;;;;;5.22;3.33;;;;;;;2.49;100.00;101361.88;1023070;29;20313;-82
2022/11/05 03:12:22;;;;;;;5.22;3.13;;;;;;;2.44;100.00;101362.31;1023089;29;20306;-82
2022/11/05 03:13:09;;;;;;;4.05;3.53;;;;;;;2.37;100.00;101361.25;1023570;29;20307;-83
2022/11/05 03:13:56;;;;;;;4.32;3.47;;;;;;;2.37;100.00;101369.16;1020395;29;20048;-82
2022/11/05 03:14:40;;;;;;;4.25;3.22;;;;;;;2.35;100.00;101363.22;1022103;28;20313;-82
2022/11/05 03:15:16;;;;;;;4.18;3.35;;;;;;;2.37;100.00;101355.19;1027231;28;20700;-82
2022/11/05 03:15:47;;;;;;;4.82;3.70;;;;;;;2.36;100.00;101364.03;1026912;28;20306;-82
2022/11/05 03:16:38;;;;;;;6.32;3.50;;;;;;;2.29;100.00;101363.00;1027383;28;20314;-82
2022/11/05 03:17:50;;;;;;;6.50;2.90;;;;;;;2.27;100.00;101364.94;1025453;28;20302;-82
2022/11/05 03:18:42;;;;;;;2.78;2.47;;;;;;;2.30;100.00;101362.00;1031644;28;20046;-82